createdAt,value
2018-04-24T00:00:47.015Z,4.33
2018-04-24T00:03:15.511Z,4.57
2018-04-24T00:05:43.975Z,4.23
2018-04-24T00:08:13.115Z,4.40
2018-04-24T00:10:41.628Z,4.27
2018-04-24T00:13:10.154Z,4.73
2018-04-24T00:15:38.588Z,4.23
2018-04-24T00:18:07.077Z,4.40
2018-04-24T00:20:35.493Z,4.60
2018-04-24T00:23:03.919Z,5.07
2018-04-24T00:25:32.361Z,4.93
2018-04-24T00:28:00.819Z,4.73
2018-04-24T00:30:29.267Z,5.00
2018-04-24T00:32:57.724Z,4.37
2018-04-24T00:35:26.203Z,5.50
2018-04-24T00:37:54.606Z,4.60
2018-04-24T00:40:23.043Z,5.03
2018-04-24T00:42:51.443Z,5.27
2018-04-24T00:45:19.910Z,4.97
2018-04-24T00:47:48.381Z,6.03
2018-04-24T00:50:16.792Z,5.27
2018-04-24T00:52:45.240Z,5.70
2018-04-24T00:55:13.615Z,5.43
2018-04-24T00:57:42.083Z,5.00
2018-04-24T01:00:10.512Z,5.07
2018-04-24T01:02:39.042Z,4.80
2018-04-24T01:05:07.467Z,5.43
2018-04-24T01:07:35.873Z,5.10
2018-04-24T01:10:04.422Z,5.23
2018-04-24T01:12:32.855Z,5.60
2018-04-24T01:15:01.318Z,4.77
2018-04-24T01:17:29.794Z,4.70
2018-04-24T01:19:58.275Z,5.40
2018-04-24T01:22:26.711Z,5.43
2018-04-24T01:24:55.147Z,5.67
2018-04-24T01:27:23.592Z,5.63
2018-04-24T01:29:52.023Z,5.60
2018-04-24T01:32:20.459Z,5.00
2018-04-24T01:34:48.849Z,5.10
2018-04-24T01:37:17.252Z,5.53
2018-04-24T01:39:45.648Z,5.20
2018-04-24T01:42:14.108Z,4.90
2018-04-24T01:44:42.547Z,5.17
2018-04-24T01:47:10.972Z,5.17
2018-04-24T01:49:39.381Z,5.57
2018-04-24T01:52:07.802Z,6.13
2018-04-24T01:54:36.259Z,5.43
2018-04-24T01:57:04.758Z,5.73
2018-04-24T01:59:33.190Z,5.90
2018-04-24T02:02:01.748Z,5.80
2018-04-24T02:04:30.227Z,5.97
2018-04-24T02:06:58.639Z,6.27
2018-04-24T02:09:27.133Z,6.47
2018-04-24T02:11:55.657Z,6.63
2018-04-24T02:14:24.139Z,6.53
2018-04-24T02:16:52.709Z,6.47
2018-04-24T02:19:21.132Z,7.10
2018-04-24T02:21:49.625Z,6.93
2018-04-24T02:24:18.311Z,6.43
2018-04-24T02:26:46.750Z,6.60
2018-04-24T02:29:15.231Z,7.63
2018-04-24T02:31:43.645Z,6.77
2018-04-24T02:34:12.036Z,7.50
2018-04-24T02:36:40.474Z,6.83
2018-04-24T02:39:08.917Z,6.27
2018-04-24T02:41:37.408Z,7.03
2018-04-24T02:44:05.842Z,6.90
2018-04-24T02:46:34.255Z,6.60
2018-04-24T02:49:02.720Z,7.47
2018-04-24T02:51:31.147Z,6.60
2018-04-24T02:53:59.540Z,7.10
2018-04-24T02:56:28.007Z,8.27
2018-04-24T02:58:56.404Z,7.50
2018-04-24T03:01:24.865Z,7.60
2018-04-24T03:03:53.281Z,7.30
2018-04-24T03:06:21.712Z,8.03
2018-04-24T03:08:50.151Z,7.80
2018-04-24T03:11:18.755Z,7.90
2018-04-24T03:13:47.164Z,7.53
2018-04-24T03:16:15.616Z,6.80
2018-04-24T03:18:44.117Z,7.07
2018-04-24T03:21:12.637Z,5.70
2018-04-24T03:23:41.486Z,7.40
2018-04-24T03:26:09.909Z,7.93
2018-04-24T03:28:38.295Z,7.07
2018-04-24T03:31:06.745Z,6.30
2018-04-24T03:33:35.178Z,7.33
2018-04-24T03:36:03.571Z,7.03
2018-04-24T03:38:31.999Z,7.43
2018-04-24T03:41:00.444Z,6.90
2018-04-24T03:43:28.980Z,10.00
2018-04-24T03:45:57.387Z,8.47
2018-04-24T03:48:25.806Z,9.23
2018-04-24T03:50:54.191Z,11.47
2018-04-24T03:53:22.638Z,9.77
2018-04-24T03:55:51.145Z,10.43
2018-04-24T03:58:19.657Z,7.30
2018-04-24T04:00:48.061Z,7.13
2018-04-24T04:03:16.566Z,6.80
2018-04-24T04:05:45.040Z,8.87
2018-04-24T04:08:13.517Z,9.67
2018-04-24T04:10:41.931Z,9.37
2018-04-24T04:13:10.391Z,8.77
2018-04-24T04:15:38.827Z,12.60
2018-04-24T04:18:18.988Z,10.73
2018-04-24T04:20:59.466Z,8.87
2018-04-24T04:23:39.822Z,9.10
2018-04-24T04:26:08.255Z,12.47
2018-04-24T04:28:36.747Z,16.87
2018-04-24T04:31:05.202Z,13.07
2018-04-24T04:33:34.638Z,13.00
2018-04-24T04:36:03.119Z,10.47
2018-04-24T04:38:31.519Z,11.80
2018-04-24T04:41:00.054Z,11.87
2018-04-24T04:43:28.535Z,13.10
2018-04-24T04:45:56.936Z,10.73
2018-04-24T04:48:25.538Z,10.67
2018-04-24T04:50:54.084Z,12.40
2018-04-24T04:53:22.539Z,11.40
2018-04-24T04:55:51.101Z,10.20
2018-04-24T04:58:19.561Z,9.10
2018-04-24T05:00:47.951Z,7.77
2018-04-24T05:03:16.408Z,9.17
2018-04-24T05:05:44.858Z,7.03
2018-04-24T05:08:13.316Z,8.13
2018-04-24T05:10:41.800Z,7.27
2018-04-24T05:13:10.227Z,6.73
2018-04-24T05:15:38.635Z,7.17
2018-04-24T05:18:07.083Z,8.73
2018-04-24T05:20:35.546Z,6.80
2018-04-24T05:23:04.033Z,7.57
2018-04-24T05:25:32.504Z,7.20
2018-04-24T05:28:00.909Z,8.23
2018-04-24T05:30:29.376Z,7.43
2018-04-24T05:32:57.883Z,8.90
2018-04-24T05:35:26.418Z,9.17
2018-04-24T05:37:54.907Z,8.77
2018-04-24T05:40:23.327Z,8.37
2018-04-24T05:42:51.739Z,8.67
2018-04-24T05:45:20.242Z,8.30
2018-04-24T05:47:48.650Z,8.10
2018-04-24T05:50:17.076Z,8.87
2018-04-24T05:52:45.479Z,9.50
2018-04-24T05:55:14.083Z,9.93
2018-04-24T05:57:42.483Z,10.00
2018-04-24T06:00:11.127Z,9.57
2018-04-24T06:02:39.553Z,10.43
2018-04-24T06:05:08.022Z,10.07
2018-04-24T06:07:36.628Z,10.23
2018-04-24T06:10:05.072Z,10.13
2018-04-24T06:12:33.571Z,8.73
2018-04-24T06:15:02.064Z,7.97
2018-04-24T06:17:30.501Z,7.97
2018-04-24T06:19:58.912Z,7.87
2018-04-24T06:22:27.348Z,8.93
2018-04-24T06:24:55.782Z,11.47
2018-04-24T06:27:24.302Z,10.90
2018-04-24T06:29:52.774Z,12.00
2018-04-24T06:32:21.281Z,12.90
2018-04-24T06:34:49.739Z,12.77
2018-04-24T06:37:18.132Z,10.73
2018-04-24T06:39:46.595Z,8.70
2018-04-24T06:42:15.143Z,9.30
2018-04-24T06:44:43.507Z,10.40
2018-04-24T06:47:11.919Z,9.20
2018-04-24T06:49:40.343Z,9.83
2018-04-24T06:52:08.749Z,9.83
2018-04-24T06:54:37.209Z,11.67
2018-04-24T06:57:05.624Z,11.70
2018-04-24T06:59:34.185Z,14.50
2018-04-24T07:02:02.623Z,12.53
2018-04-24T07:04:31.083Z,11.57
2018-04-24T07:06:59.544Z,13.77
2018-04-24T07:09:27.964Z,14.40
2018-04-24T07:11:56.457Z,13.23
2018-04-24T07:14:25.020Z,13.57
2018-04-24T07:16:53.515Z,14.33
2018-04-24T07:19:22.056Z,12.67
2018-04-24T07:21:50.513Z,14.20
2018-04-24T07:24:18.963Z,12.57
2018-04-24T07:26:47.385Z,12.37
2018-04-24T07:29:15.791Z,11.80
2018-04-24T07:31:44.268Z,13.20
2018-04-24T07:34:12.680Z,14.33
2018-04-24T07:36:41.265Z,13.07
2018-04-24T07:39:09.756Z,12.07
2018-04-24T07:41:38.244Z,11.47
2018-04-24T07:44:06.689Z,12.97
2018-04-24T07:46:35.214Z,11.20
2018-04-24T07:49:03.631Z,11.67
2018-04-24T07:51:32.154Z,11.77
2018-04-24T07:54:00.591Z,12.67
2018-04-24T07:56:28.995Z,13.13
2018-04-24T07:58:57.450Z,12.37
2018-04-24T08:01:25.902Z,11.13
2018-04-24T08:03:54.705Z,12.33
2018-04-24T08:06:23.161Z,12.93
2018-04-24T08:08:51.603Z,11.30
2018-04-24T08:11:20.076Z,12.83
2018-04-24T08:13:48.549Z,11.57
2018-04-24T08:16:17.006Z,10.60
2018-04-24T08:18:45.444Z,10.73
2018-04-24T08:21:13.895Z,11.57
2018-04-24T08:23:42.320Z,13.03
2018-04-24T08:26:10.736Z,12.00
2018-04-24T08:28:39.221Z,11.97
2018-04-24T08:31:07.627Z,10.60
2018-04-24T08:33:36.193Z,11.13
2018-04-24T08:36:04.601Z,11.53
2018-04-24T08:38:33.068Z,11.10
2018-04-24T08:41:01.493Z,11.67
2018-04-24T08:43:30.056Z,11.27
2018-04-24T08:45:58.502Z,12.10
2018-04-24T08:48:26.918Z,14.27
2018-04-24T08:50:55.384Z,11.23
2018-04-24T08:53:23.812Z,11.63
2018-04-24T08:55:52.290Z,11.30
2018-04-24T08:58:20.852Z,11.87
2018-04-24T09:00:49.335Z,10.80
2018-04-24T09:03:17.844Z,12.23
2018-04-24T09:05:46.353Z,12.17
2018-04-24T09:08:14.811Z,11.60
2018-04-24T09:10:43.232Z,12.13
2018-04-24T09:13:11.684Z,12.50
2018-04-24T09:15:40.101Z,12.00
2018-04-24T09:18:08.538Z,13.00
2018-04-24T09:20:36.952Z,13.30
2018-04-24T09:23:05.360Z,13.30
2018-04-24T09:25:33.857Z,14.03
2018-04-24T09:28:02.285Z,11.20
2018-04-24T09:30:30.707Z,11.20
2018-04-24T09:32:59.107Z,11.57
2018-04-24T09:35:28.305Z,11.73
2018-04-24T09:37:56.745Z,11.07
2018-04-24T09:40:25.208Z,10.70
2018-04-24T09:42:53.622Z,11.25
2018-04-24T09:45:22.093Z,9.80
2018-04-24T09:47:50.503Z,11.77
2018-04-24T09:50:18.908Z,10.98
2018-04-24T09:52:47.339Z,8.05
2018-04-24T09:55:15.763Z,10.32
2018-04-24T09:57:44.692Z,10.65
2018-04-24T10:00:13.172Z,8.63
2018-04-24T10:02:41.580Z,5.95
2018-04-24T10:05:10.016Z,6.37
2018-04-24T10:07:38.478Z,7.15
2018-04-24T10:10:06.947Z,8.07
2018-04-24T10:12:35.391Z,10.73
2018-04-24T10:15:03.792Z,8.07
2018-04-24T10:17:32.265Z,6.82
2018-04-24T10:20:00.704Z,5.43
2018-04-24T10:22:29.099Z,4.97
2018-04-24T10:24:57.537Z,5.87
2018-04-24T10:27:25.948Z,5.87
2018-04-24T10:29:54.391Z,6.05
2018-04-24T10:32:22.836Z,4.43
2018-04-24T10:34:51.257Z,4.37
2018-04-24T10:37:19.701Z,4.57
2018-04-24T10:39:48.119Z,5.47
2018-04-24T10:42:16.591Z,4.87
2018-04-24T10:44:45.115Z,4.28
2018-04-24T10:47:13.511Z,3.80
2018-04-24T10:49:42.012Z,4.30
2018-04-24T10:52:10.428Z,3.60
2018-04-24T10:54:38.847Z,3.75
2018-04-24T10:57:07.279Z,5.25
2018-04-24T10:59:35.705Z,3.50
2018-04-24T11:02:04.182Z,3.28
2018-04-24T11:04:32.586Z,3.25
2018-04-24T11:07:01.044Z,4.00
2018-04-24T11:09:29.555Z,4.68
2018-04-24T11:11:58.005Z,3.85
2018-04-24T11:14:26.386Z,4.32
2018-04-24T11:16:55.203Z,4.32
2018-04-24T11:19:23.597Z,4.20
2018-04-24T11:21:51.997Z,3.95
2018-04-24T11:24:20.455Z,5.07
2018-04-24T11:26:48.875Z,4.55
2018-04-24T11:29:17.354Z,4.03
2018-04-24T11:31:46.218Z,4.30
2018-04-24T11:34:14.765Z,4.18
2018-04-24T11:36:43.294Z,4.03
2018-04-24T11:39:12.057Z,4.35
2018-04-24T11:41:40.553Z,4.28
2018-04-24T11:44:08.911Z,3.62
2018-04-24T11:46:37.803Z,4.18
2018-04-24T11:49:06.223Z,4.03
2018-04-24T11:51:34.635Z,3.60
2018-04-24T11:54:03.119Z,3.92
2018-04-24T11:56:31.567Z,4.47
2018-04-24T11:58:59.965Z,3.78
2018-04-24T12:01:28.492Z,4.10
2018-04-24T12:03:56.918Z,3.72
2018-04-24T12:06:25.311Z,3.75
2018-04-24T12:08:54.103Z,4.60
2018-04-24T12:11:22.483Z,3.60
2018-04-24T12:13:50.870Z,4.00
2018-04-24T12:16:19.595Z,3.25
2018-04-24T12:18:48.017Z,3.95
2018-04-24T12:21:16.418Z,3.95
2018-04-24T12:23:45.240Z,4.75
2018-04-24T12:26:13.666Z,4.00
2018-04-24T12:28:42.045Z,4.50
2018-04-24T12:31:10.780Z,4.20
2018-04-24T12:33:39.181Z,3.85
2018-04-24T12:36:07.616Z,4.22
2018-04-24T12:38:36.388Z,3.75
2018-04-24T12:41:04.794Z,4.15
2018-04-24T12:43:33.220Z,3.87
2018-04-24T12:46:01.666Z,3.62
2018-04-24T12:48:30.083Z,3.72
2018-04-24T12:50:58.473Z,3.92
2018-04-24T12:53:26.918Z,3.65
2018-04-24T12:55:55.365Z,3.42
2018-04-24T12:58:23.830Z,3.95
2018-04-24T13:00:52.242Z,4.20
2018-04-24T13:03:20.708Z,4.87
2018-04-24T13:05:49.157Z,4.18
2018-04-24T13:08:17.557Z,3.58
2018-04-24T13:10:46.003Z,4.37
2018-04-24T13:13:14.717Z,4.50
2018-04-24T13:15:43.125Z,4.03
2018-04-24T13:18:11.565Z,3.60
2018-04-24T13:20:39.979Z,4.05
2018-04-24T13:23:08.417Z,3.83
2018-04-24T13:25:37.841Z,3.20
2018-04-24T13:28:06.283Z,3.42
2018-04-24T13:30:35.051Z,4.35
2018-04-24T13:33:03.555Z,4.72
2018-04-24T13:35:31.991Z,3.87
2018-04-24T13:38:00.598Z,4.10
2018-04-24T13:40:29.013Z,4.05
2018-04-24T13:42:57.453Z,4.18
2018-04-24T13:45:25.945Z,4.10
2018-04-24T13:47:54.383Z,3.15
2018-04-24T13:50:22.824Z,4.00
2018-04-24T13:52:51.257Z,4.22
2018-04-24T13:55:19.728Z,4.70
2018-04-24T13:57:48.108Z,4.10
2018-04-24T14:00:16.562Z,3.33
2018-04-24T14:02:45.784Z,3.62
2018-04-24T14:05:14.191Z,4.35
2018-04-24T14:07:42.599Z,5.20
2018-04-24T14:10:11.031Z,5.45
2018-04-24T14:12:39.437Z,5.68
2018-04-24T14:15:07.848Z,3.80
2018-04-24T14:17:36.306Z,4.07
2018-04-24T14:20:04.882Z,4.37
2018-04-24T14:22:33.323Z,4.85
2018-04-24T14:25:01.735Z,4.47
2018-04-24T14:27:30.182Z,4.62
2018-04-24T14:29:58.587Z,4.20
2018-04-24T14:32:27.020Z,4.68
2018-04-24T14:34:55.436Z,5.12
2018-04-24T14:37:23.834Z,3.10
2018-04-24T14:39:52.283Z,4.03
2018-04-24T14:42:22.438Z,4.18
2018-04-24T14:44:50.923Z,4.05
2018-04-24T14:47:19.601Z,4.22
2018-04-24T14:49:48.003Z,4.50
2018-04-24T14:52:16.598Z,4.37
2018-04-24T14:54:45.080Z,4.28
2018-04-24T14:57:13.548Z,4.15
2018-04-24T14:59:42.039Z,4.07
2018-04-24T15:02:10.662Z,4.78
2018-04-24T15:04:39.081Z,6.37
2018-04-24T15:07:07.561Z,3.90
2018-04-24T15:09:35.933Z,4.12
2018-04-24T15:12:04.419Z,3.85
2018-04-24T15:14:32.874Z,4.12
2018-04-24T15:17:01.471Z,4.65
2018-04-24T15:19:29.928Z,5.22
2018-04-24T15:21:58.354Z,4.53
2018-04-24T15:24:26.809Z,4.80
2018-04-24T15:26:55.231Z,4.40
2018-04-24T15:29:23.651Z,4.55
2018-04-24T15:31:52.104Z,4.35
2018-04-24T15:34:20.571Z,4.25
2018-04-24T15:36:48.974Z,5.03
2018-04-24T15:39:17.437Z,4.50
2018-04-24T15:41:45.864Z,4.60
2018-04-24T15:44:14.272Z,4.30
2018-04-24T15:46:42.722Z,5.28
2018-04-24T15:49:11.189Z,4.32
2018-04-24T15:51:39.651Z,4.75
2018-04-24T15:54:08.213Z,5.60
2018-04-24T15:56:36.719Z,4.82
2018-04-24T15:59:05.206Z,4.57
2018-04-24T16:01:33.699Z,3.95
2018-04-24T16:04:02.139Z,4.35
2018-04-24T16:06:30.608Z,4.18
2018-04-24T16:08:59.000Z,4.10
2018-04-24T16:11:27.927Z,5.28
2018-04-24T16:13:56.467Z,4.78
2018-04-24T16:16:24.883Z,4.95
2018-04-24T16:18:53.476Z,5.03
2018-04-24T16:21:21.917Z,4.65
2018-04-24T16:23:50.328Z,4.70
2018-04-24T16:26:18.907Z,5.47
2018-04-24T16:28:47.539Z,5.50
2018-04-24T16:31:15.995Z,5.67
2018-04-24T16:33:44.440Z,3.83
2018-04-24T16:36:12.844Z,4.37
2018-04-24T16:38:41.310Z,4.80
2018-04-24T16:41:09.699Z,5.63
2018-04-24T16:43:38.168Z,7.43
2018-04-24T16:46:06.742Z,5.60
2018-04-24T16:48:35.197Z,6.73
2018-04-24T16:51:03.652Z,5.30
2018-04-24T16:53:32.085Z,6.03
2018-04-24T16:56:00.550Z,7.47
2018-04-24T16:58:28.961Z,6.13
2018-04-24T17:00:57.411Z,5.17
2018-04-24T17:03:25.815Z,6.93
2018-04-24T17:05:54.358Z,5.57
2018-04-24T17:08:22.796Z,6.57
2018-04-24T17:10:51.280Z,5.47
2018-04-24T17:13:19.687Z,4.97
2018-04-24T17:15:48.111Z,3.50
2018-04-24T17:18:16.571Z,4.23
2018-04-24T17:20:44.968Z,4.80
2018-04-24T17:23:13.499Z,4.97
2018-04-24T17:25:41.971Z,5.17
2018-04-24T17:28:10.427Z,6.40
2018-04-24T17:30:38.929Z,5.90
2018-04-24T17:33:07.331Z,4.33
2018-04-24T17:35:35.767Z,4.40
2018-04-24T17:38:04.206Z,4.60
2018-04-24T17:40:32.640Z,11.40
2018-04-24T17:43:01.036Z,6.57
2018-04-24T17:45:29.471Z,7.03
2018-04-24T17:47:57.919Z,10.80
2018-04-24T17:50:26.378Z,17.77
2018-04-24T17:52:54.857Z,13.03
2018-04-24T17:55:23.309Z,12.00
2018-04-24T17:57:51.868Z,12.43
2018-04-24T18:00:20.269Z,8.40
2018-04-24T18:02:48.747Z,6.73
2018-04-24T18:05:17.193Z,7.23
2018-04-24T18:07:45.600Z,5.50
2018-04-24T18:10:14.036Z,9.20
2018-04-24T18:12:42.486Z,6.40
2018-04-24T18:15:10.964Z,6.17
2018-04-24T18:17:39.382Z,4.83
2018-04-24T18:20:07.820Z,5.67
2018-04-24T18:22:36.279Z,5.87
2018-04-24T18:25:04.747Z,6.73
2018-04-24T18:27:33.117Z,11.23
2018-04-24T18:30:01.556Z,7.03
2018-04-24T18:32:30.003Z,6.17
2018-04-24T18:34:58.562Z,5.87
2018-04-24T18:37:27.003Z,4.90
2018-04-24T18:39:55.436Z,6.03
2018-04-24T18:42:23.818Z,5.43
2018-04-24T18:44:52.340Z,5.60
2018-04-24T18:47:20.759Z,6.30
2018-04-24T18:49:49.234Z,4.33
2018-04-24T18:52:17.660Z,5.37
2018-04-24T18:54:46.077Z,5.40
2018-04-24T18:57:14.499Z,5.07
2018-04-24T18:59:42.949Z,5.93
2018-04-24T19:02:11.366Z,5.77
2018-04-24T19:04:39.839Z,5.43
2018-04-24T19:07:08.307Z,5.67
2018-04-24T19:09:36.747Z,6.37
2018-04-24T19:12:05.166Z,5.53
2018-04-24T19:14:33.595Z,6.67
2018-04-24T19:17:02.063Z,5.53
2018-04-24T19:19:30.526Z,6.57
2018-04-24T19:21:58.953Z,5.20
2018-04-24T19:24:33.083Z,5.47
2018-04-24T19:27:01.583Z,5.00
2018-04-24T19:29:29.999Z,6.10
2018-04-24T19:32:04.147Z,4.90
2018-04-24T19:34:32.595Z,4.97
2018-04-24T19:37:00.980Z,5.33
2018-04-24T19:39:34.989Z,5.00
2018-04-24T19:42:03.376Z,4.90
2018-04-24T19:44:31.807Z,4.60
2018-04-24T19:47:00.281Z,4.60
2018-04-24T19:49:34.445Z,5.13
2018-04-24T19:52:02.838Z,6.03
2018-04-24T19:54:31.278Z,5.70
2018-04-24T19:56:59.708Z,5.63
2018-04-24T19:59:28.130Z,6.33
2018-04-24T20:01:56.586Z,5.60
2018-04-24T20:04:25.059Z,5.03
2018-04-24T20:06:53.428Z,4.67
2018-04-24T20:09:21.858Z,4.90
2018-04-24T20:11:50.291Z,4.67
2018-04-24T20:14:18.768Z,4.97
2018-04-24T20:16:47.201Z,4.50
2018-04-24T20:19:15.637Z,4.33
2018-04-24T20:21:44.092Z,5.40
2018-04-24T20:24:12.482Z,5.50
2018-04-24T20:26:40.888Z,4.80
2018-04-24T20:29:09.305Z,5.53
2018-04-24T20:31:37.707Z,4.67
2018-04-24T20:34:06.150Z,4.67
2018-04-24T20:36:34.603Z,4.67
2018-04-24T20:39:03.231Z,5.07
2018-04-24T20:41:31.665Z,6.33
2018-04-24T20:44:00.052Z,5.50
2018-04-24T20:46:28.502Z,4.33
2018-04-24T20:48:56.945Z,4.90
2018-04-24T20:51:25.348Z,6.00
2018-04-24T20:53:53.788Z,5.60
2018-04-24T20:56:22.197Z,5.90
2018-04-24T20:58:50.682Z,5.90
2018-04-24T21:01:19.088Z,5.93
2018-04-24T21:03:47.516Z,5.30
2018-04-24T21:06:16.025Z,6.43
2018-04-24T21:08:44.480Z,5.57
2018-04-24T21:11:12.908Z,6.57
2018-04-24T21:13:41.330Z,6.10
2018-04-24T21:16:09.843Z,6.57
2018-04-24T21:18:38.411Z,5.77
2018-04-24T21:21:06.848Z,5.70
2018-04-24T21:23:35.359Z,5.87
2018-04-24T21:26:03.824Z,6.10
2018-04-24T21:28:32.263Z,5.30
2018-04-24T21:31:00.703Z,5.83
2018-04-24T21:33:29.096Z,6.13
2018-04-24T21:35:57.556Z,6.37
2018-04-24T21:38:25.948Z,5.67
2018-04-24T21:40:54.399Z,6.10
2018-04-24T21:43:22.789Z,5.73
2018-04-24T21:45:51.224Z,6.13
2018-04-24T21:48:19.628Z,5.70
2018-04-24T21:50:48.025Z,5.33
2018-04-24T21:53:16.482Z,4.80
2018-04-24T21:55:44.885Z,5.23
2018-04-24T21:58:13.357Z,3.93
2018-04-24T22:00:41.803Z,5.03
2018-04-24T22:03:10.175Z,4.90
2018-04-24T22:05:38.672Z,4.80
2018-04-24T22:08:07.063Z,4.30
2018-04-24T22:10:35.468Z,4.33
2018-04-24T22:13:03.908Z,5.00
2018-04-24T22:15:32.355Z,5.00
2018-04-24T22:18:00.840Z,4.60
2018-04-24T22:20:29.292Z,4.83
2018-04-24T22:22:57.784Z,5.13
2018-04-24T22:25:26.191Z,4.87
2018-04-24T22:27:54.627Z,4.67
2018-04-24T22:30:23.087Z,4.73
2018-04-24T22:32:51.537Z,5.47
2018-04-24T22:35:19.918Z,5.03
2018-04-24T22:37:48.354Z,5.40
2018-04-24T22:40:16.739Z,5.47
2018-04-24T22:42:46.110Z,5.30
2018-04-24T22:45:14.541Z,5.77
2018-04-24T22:47:43.012Z,12.37
2018-04-24T22:50:11.431Z,8.23
2018-04-24T22:52:39.895Z,8.20
2018-04-24T22:55:08.300Z,6.90
2018-04-24T22:57:36.760Z,7.17
2018-04-24T23:00:05.167Z,7.00
2018-04-24T23:02:33.328Z,7.90
2018-04-24T23:05:01.755Z,7.50
2018-04-24T23:07:30.170Z,6.50
2018-04-24T23:09:58.075Z,6.50
2018-04-24T23:12:38.100Z,6.00
2018-04-24T23:15:24.487Z,6.00
2018-04-24T23:18:10.727Z,6.03
2018-04-24T23:20:44.573Z,5.23
2018-04-24T23:23:13.047Z,5.67
2018-04-24T23:25:41.498Z,5.17
2018-04-24T23:28:09.976Z,5.83
2018-04-24T23:30:38.413Z,5.50
2018-04-24T23:33:06.860Z,6.10
2018-04-24T23:35:35.310Z,6.00
2018-04-24T23:38:03.746Z,5.23
2018-04-24T23:40:32.203Z,5.37
2018-04-24T23:43:00.656Z,5.53
2018-04-24T23:45:29.155Z,5.60
2018-04-24T23:47:57.639Z,5.37
2018-04-24T23:50:26.162Z,5.07
2018-04-24T23:52:54.555Z,5.70
2018-04-24T23:55:22.976Z,5.90
2018-04-24T23:57:51.440Z,5.17
